sensor_id;sensor_type;location;lat;lon;timestamp;pressure;altitude;pressure_sealevel;temperature;humidity
56514;BME280;62152;52.078;8.414;2023-05-16T00:03:58;100082.91;;;20.40;48.09
56514;BME280;62152;52.078;8.414;2023-05-16T00:08:00;100081.34;;;20.39;48.46
56514;BME280;62152;52.078;8.414;2023-05-16T00:12:00;100077.81;;;20.39;48.65
56514;BME280;62152;52.078;8.414;2023-05-16T00:16:01;100081.34;;;20.39;48.43
56514;BME280;62152;52.078;8.414;2023-05-16T00:20:03;100088.03;;;20.38;48.06
56514;BME280;62152;52.078;8.414;2023-05-16T00:24:06;100086.84;;;20.39;48.50
56514;BME280;62152;52.078;8.414;2023-05-16T00:28:07;100090.78;;;20.38;48.04
56514;BME280;62152;52.078;8.414;2023-05-16T00:32:08;100091.94;;;20.37;48.10
56514;BME280;62152;52.078;8.414;2023-05-16T00:36:09;100088.78;;;20.35;48.49
56514;BME280;62152;52.078;8.414;2023-05-16T00:40:11;100090.38;;;20.36;48.47
56514;BME280;62152;52.078;8.414;2023-05-16T00:44:12;100091.94;;;20.37;48.10
56514;BME280;62152;52.078;8.414;2023-05-16T00:48:14;100086.44;;;20.37;48.45
56514;BME280;62152;52.078;8.414;2023-05-16T00:52:15;100083.69;;;20.37;48.27
56514;BME280;62152;52.078;8.414;2023-05-16T00:56:17;100091.94;;;20.37;48.50
56514;BME280;62152;52.078;8.414;2023-05-16T01:00:18;100082.09;;;20.36;48.67
56514;BME280;62152;52.078;8.414;2023-05-16T01:04:19;100083.28;;;20.35;48.23
56514;BME280;62152;52.078;8.414;2023-05-16T01:08:20;100088.78;;;20.35;48.39
56514;BME280;62152;52.078;8.414;2023-05-16T01:12:36;100089.97;;;20.34;48.47
56514;BME280;62152;52.078;8.414;2023-05-16T01:16:52;100093.50;;;20.35;48.70
56514;BME280;62152;52.078;8.414;2023-05-16T01:20:58;100085.25;;;20.35;48.20
56514;BME280;62152;52.078;8.414;2023-05-16T01:25:08;100085.63;;;20.33;48.38
56514;BME280;62152;52.078;8.414;2023-05-16T01:29:18;100085.25;;;20.35;48.60
56514;BME280;62152;52.078;8.414;2023-05-16T01:33:18;100091.94;;;20.34;48.71
56514;BME280;62152;52.078;8.414;2023-05-16T01:37:28;100096.66;;;20.33;48.48
56514;BME280;62152;52.078;8.414;2023-05-16T01:41:44;100099.41;;;20.33;48.08
56514;BME280;62152;52.078;8.414;2023-05-16T01:45:55;100106.09;;;20.32;48.37
56514;BME280;62152;52.078;8.414;2023-05-16T01:50:09;100107.25;;;20.31;48.54
56514;BME280;62152;52.078;8.414;2023-05-16T01:54:17;100124.16;;;20.30;48.16
56514;BME280;62152;52.078;8.414;2023-05-16T01:58:22;100122.19;;;20.30;48.80
56514;BME280;62152;52.078;8.414;2023-05-16T02:02:27;100121.00;;;20.31;48.46
56514;BME280;62152;52.078;8.414;2023-05-16T02:06:28;100145.81;;;20.31;48.72
56514;BME280;62152;52.078;8.414;2023-05-16T02:10:30;100142.25;;;20.31;48.37
56514;BME280;62152;52.078;8.414;2023-05-16T02:14:33;100143.03;;;20.31;48.43
56514;BME280;62152;52.078;8.414;2023-05-16T02:18:35;100152.47;;;20.30;48.36
56514;BME280;62152;52.078;8.414;2023-05-16T02:22:37;100144.22;;;20.30;48.80
56514;BME280;62152;52.078;8.414;2023-05-16T02:26:38;100140.69;;;20.30;48.43
56514;BME280;62152;52.078;8.414;2023-05-16T02:30:39;100148.16;;;20.29;48.80
56514;BME280;62152;52.078;8.414;2023-05-16T02:34:41;100159.97;;;20.30;48.46
56514;BME280;62152;52.078;8.414;2023-05-16T02:38:42;100159.16;;;20.29;48.81
56514;BME280;62152;52.078;8.414;2023-05-16T02:42:42;100153.66;;;20.29;48.43
56514;BME280;62152;52.078;8.414;2023-05-16T02:46:43;100156.41;;;20.29;48.88
56514;BME280;62152;52.078;8.414;2023-05-16T02:50:45;100164.69;;;20.29;48.18
56514;BME280;62152;52.078;8.414;2023-05-16T02:54:46;100161.13;;;20.29;48.92
56514;BME280;62152;52.078;8.414;2023-05-16T02:58:48;100172.94;;;20.29;48.42
56514;BME280;62152;52.078;8.414;2023-05-16T03:02:50;100169.00;;;20.27;48.60
56514;BME280;62152;52.078;8.414;2023-05-16T03:06:52;100169.00;;;20.27;48.87
56514;BME280;62152;52.078;8.414;2023-05-16T03:10:53;100170.56;;;20.28;48.90
56514;BME280;62152;52.078;8.414;2023-05-16T03:14:54;100173.72;;;20.26;48.76
56514;BME280;62152;52.078;8.414;2023-05-16T03:18:55;100183.94;;;20.26;48.72
56514;BME280;62152;52.078;8.414;2023-05-16T03:22:57;100185.53;;;20.27;49.10
56514;BME280;62152;52.078;8.414;2023-05-16T03:26:58;100186.69;;;20.26;48.64
56514;BME280;62152;52.078;8.414;2023-05-16T03:30:59;100192.22;;;20.29;48.91
56514;BME280;62152;52.078;8.414;2023-05-16T03:35:00;100193.41;;;20.28;49.00
56514;BME280;62152;52.078;8.414;2023-05-16T03:39:02;100204.41;;;20.28;48.91
56514;BME280;62152;52.078;8.414;2023-05-16T03:43:02;100204.81;;;20.27;48.96
56514;BME280;62152;52.078;8.414;2023-05-16T03:47:04;100212.28;;;20.26;48.90
56514;BME280;62152;52.078;8.414;2023-05-16T03:51:04;100221.72;;;20.25;48.41
56514;BME280;62152;52.078;8.414;2023-05-16T03:55:07;100222.50;;;20.26;49.36
56514;BME280;62152;52.078;8.414;2023-05-16T03:59:08;100230.28;;;20.16;48.78
56514;BME280;62152;52.078;8.414;2023-05-16T04:03:09;100236.13;;;18.61;48.89
56514;BME280;62152;52.078;8.414;2023-05-16T04:07:10;100239.56;;;17.70;48.08
56514;BME280;62152;52.078;8.414;2023-05-16T04:11:12;100245.00;;;17.86;47.30
56514;BME280;62152;52.078;8.414;2023-05-16T04:15:13;100252.97;;;18.82;46.28
56514;BME280;62152;52.078;8.414;2023-05-16T04:19:13;100253.44;;;19.45;45.03
56514;BME280;62152;52.078;8.414;2023-05-16T04:23:14;100259.22;;;19.66;45.44
56514;BME280;62152;52.078;8.414;2023-05-16T04:27:16;100272.31;;;19.76;45.66
56514;BME280;62152;52.078;8.414;2023-05-16T04:31:17;100269.22;;;19.81;45.33
56514;BME280;62152;52.078;8.414;2023-05-16T04:35:18;100274.00;;;19.84;46.16
56514;BME280;62152;52.078;8.414;2023-05-16T04:39:19;100276.00;;;19.87;45.19
56514;BME280;62152;52.078;8.414;2023-05-16T04:43:21;100287.06;;;19.91;45.66
56514;BME280;62152;52.078;8.414;2023-05-16T04:47:22;100290.59;;;19.91;45.93
56514;BME280;62152;52.078;8.414;2023-05-16T04:51:23;100297.31;;;19.94;45.72
56514;BME280;62152;52.078;8.414;2023-05-16T04:55:24;100306.34;;;19.94;46.16
56514;BME280;62152;52.078;8.414;2023-05-16T04:59:26;100315.00;;;19.97;46.49
56514;BME280;62152;52.078;8.414;2023-05-16T05:03:27;100318.59;;;19.97;46.48
56514;BME280;62152;52.078;8.414;2023-05-16T05:07:27;100317.78;;;19.97;46.59
56514;BME280;62152;52.078;8.414;2023-05-16T05:11:28;100323.72;;;19.99;46.32
56514;BME280;62152;52.078;8.414;2023-05-16T05:15:30;100328.03;;;20.00;46.54
56514;BME280;62152;52.078;8.414;2023-05-16T05:19:31;100326.88;;;20.01;46.24
56514;BME280;62152;52.078;8.414;2023-05-16T05:27:33;100333.97;;;20.02;46.70
56514;BME280;62152;52.078;8.414;2023-05-16T05:31:35;100337.13;;;20.04;46.93
56514;BME280;62152;52.078;8.414;2023-05-16T05:35:36;100339.88;;;20.04;46.65
56514;BME280;62152;52.078;8.414;2023-05-16T05:39:36;100347.78;;;20.05;46.77
56514;BME280;62152;52.078;8.414;2023-05-16T05:43:37;100354.50;;;20.08;47.03
56514;BME280;62152;52.078;8.414;2023-05-16T05:47:39;100352.91;;;20.07;46.96
56514;BME280;62152;52.078;8.414;2023-05-16T05:51:40;100349.78;;;20.08;46.92
56514;BME280;62152;52.078;8.414;2023-05-16T05:55:41;100353.31;;;20.09;47.07
56514;BME280;62152;52.078;8.414;2023-05-16T05:59:42;100358.09;;;20.12;46.88
56514;BME280;62152;52.078;8.414;2023-05-16T06:03:44;100360.84;;;20.12;47.22
56514;BME280;62152;52.078;8.414;2023-05-16T06:07:45;100364.78;;;20.11;46.58
56514;BME280;62152;52.078;8.414;2023-05-16T06:11:45;100373.03;;;20.11;47.32
56514;BME280;62152;52.078;8.414;2023-05-16T06:15:49;100376.56;;;20.11;46.67
56514;BME280;62152;52.078;8.414;2023-05-16T06:19:51;100382.88;;;20.12;46.92
56514;BME280;62152;52.078;8.414;2023-05-16T06:23:52;100386.81;;;20.14;47.19
56514;BME280;62152;52.078;8.414;2023-05-16T06:27:53;100383.69;;;20.16;46.96
56514;BME280;62152;52.078;8.414;2023-05-16T06:31:54;100383.69;;;20.16;47.18
56514;BME280;62152;52.078;8.414;2023-05-16T06:35:56;100388.03;;;20.17;47.21
56514;BME280;62152;52.078;8.414;2023-05-16T06:39:57;100397.47;;;20.16;47.14
56514;BME280;62152;52.078;8.414;2023-05-16T06:43:57;100383.28;;;20.14;46.78
56514;BME280;62152;52.078;8.414;2023-05-16T06:47:58;100402.19;;;20.15;47.17
56514;BME280;62152;52.078;8.414;2023-05-16T06:52:01;100409.66;;;20.15;47.48
56514;BME280;62152;52.078;8.414;2023-05-16T06:56:02;100413.19;;;20.15;46.77
56514;BME280;62152;52.078;8.414;2023-05-16T07:00:04;100409.66;;;20.15;46.63
56514;BME280;62152;52.078;8.414;2023-05-16T07:04:06;100408.53;;;20.19;47.04
56514;BME280;62152;52.078;8.414;2023-05-16T07:08:09;100413.25;;;20.19;46.71
56514;BME280;62152;52.078;8.414;2023-05-16T07:12:10;100404.19;;;20.18;47.43
56514;BME280;62152;52.078;8.414;2023-05-16T07:16:10;100412.81;;;20.17;47.35
56514;BME280;62152;52.078;8.414;2023-05-16T07:20:12;100411.22;;;20.16;47.32
56514;BME280;62152;52.078;8.414;2023-05-16T07:24:14;100420.66;;;20.15;47.01
56514;BME280;62152;52.078;8.414;2023-05-16T07:28:15;100416.72;;;20.16;46.85
56514;BME280;62152;52.078;8.414;2023-05-16T07:32:15;100419.94;;;20.18;47.28
56514;BME280;62152;52.078;8.414;2023-05-16T07:36:16;100417.19;;;20.21;46.85
56514;BME280;62152;52.078;8.414;2023-05-16T07:40:18;100430.13;;;20.17;47.20
56514;BME280;62152;52.078;8.414;2023-05-16T07:44:19;100423.41;;;20.15;47.22
56514;BME280;62152;52.078;8.414;2023-05-16T07:48:20;100433.25;;;20.16;46.97
56514;BME280;62152;52.078;8.414;2023-05-16T07:52:21;100424.22;;;20.15;47.40
56514;BME280;62152;52.078;8.414;2023-05-16T07:56:23;100419.94;;;20.18;46.83
56514;BME280;62152;52.078;8.414;2023-05-16T08:00:24;100427.00;;;20.19;47.35
56514;BME280;62152;52.078;8.414;2023-05-16T08:04:25;100425.09;;;20.23;47.18
56514;BME280;62152;52.078;8.414;2023-05-16T08:08:26;100425.88;;;20.23;46.98
56514;BME280;62152;52.078;8.414;2023-05-16T08:12:28;100425.47;;;20.21;47.17
56514;BME280;62152;52.078;8.414;2023-05-16T08:16:29;100433.72;;;20.21;47.18
56514;BME280;62152;52.078;8.414;2023-05-16T08:20:29;100435.31;;;20.22;46.88
56514;BME280;62152;52.078;8.414;2023-05-16T08:24:30;100433.34;;;20.23;47.30
56514;BME280;62152;52.078;8.414;2023-05-16T08:28:32;100441.19;;;20.21;46.66
56514;BME280;62152;52.078;8.414;2023-05-16T08:32:33;100438.03;;;20.19;46.83
56514;BME280;62152;52.078;8.414;2023-05-16T08:36:34;100446.28;;;20.19;46.94
56514;BME280;62152;52.078;8.414;2023-05-16T08:40:35;100443.16;;;20.20;46.85
56514;BME280;62152;52.078;8.414;2023-05-16T08:44:38;100444.34;;;20.23;47.20
56514;BME280;62152;52.078;8.414;2023-05-16T08:48:43;100438.91;;;20.27;46.53
56514;BME280;62152;52.078;8.414;2023-05-16T08:52:51;100432.56;;;20.22;46.77
56514;BME280;62152;52.078;8.414;2023-05-16T08:56:53;100434.13;;;20.23;46.87
56514;BME280;62152;52.078;8.414;2023-05-16T09:00:57;100431.03;;;20.25;47.37
56514;BME280;62152;52.078;8.414;2023-05-16T09:04:58;100427.44;;;20.21;46.88
56514;BME280;62152;52.078;8.414;2023-05-16T09:08:59;100440.41;;;20.20;47.31
56514;BME280;62152;52.078;8.414;2023-05-16T09:13:00;100442.41;;;20.23;46.83
56514;BME280;62152;52.078;8.414;2023-05-16T09:17:06;100427.09;;;20.26;46.85
56514;BME280;62152;52.078;8.414;2023-05-16T09:21:09;100434.19;;;20.27;46.57
56514;BME280;62152;52.078;8.414;2023-05-16T09:25:16;100428.63;;;20.23;46.69
56514;BME280;62152;52.078;8.414;2023-05-16T09:29:17;100427.84;;;20.23;47.18
56514;BME280;62152;52.078;8.414;2023-05-16T09:33:21;100429.41;;;20.24;46.81
56514;BME280;62152;52.078;8.414;2023-05-16T09:37:22;100431.75;;;20.22;47.07
56514;BME280;62152;52.078;8.414;2023-05-16T09:41:23;100431.38;;;20.23;47.34
56514;BME280;62152;52.078;8.414;2023-05-16T09:45:24;100433.00;;;20.25;47.11
56514;BME280;62152;52.078;8.414;2023-05-16T09:49:26;100429.06;;;20.26;46.75
56514;BME280;62152;52.078;8.414;2023-05-16T09:53:29;100429.84;;;20.26;46.99
56514;BME280;62152;52.078;8.414;2023-05-16T09:57:31;100423.91;;;20.24;46.93
56514;BME280;62152;52.078;8.414;2023-05-16T10:01:32;100424.69;;;20.21;47.32
56514;BME280;62152;52.078;8.414;2023-05-16T10:05:35;100427.91;;;20.27;46.61
56514;BME280;62152;52.078;8.414;2023-05-16T10:09:38;100429.06;;;20.26;46.65
56514;BME280;62152;52.078;8.414;2023-05-16T10:13:40;100422.78;;;20.25;47.21
56514;BME280;62152;52.078;8.414;2023-05-16T10:17:42;100432.63;;;20.26;47.19
56514;BME280;62152;52.078;8.414;2023-05-16T10:21:53;100419.25;;;20.28;46.72
56514;BME280;62152;52.078;8.414;2023-05-16T10:25:59;100420.41;;;20.27;47.10
56514;BME280;62152;52.078;8.414;2023-05-16T10:30:03;100418.06;;;20.26;46.67
56514;BME280;62152;52.078;8.414;2023-05-16T10:34:05;100425.13;;;20.27;46.65
56514;BME280;62152;52.078;8.414;2023-05-16T10:38:10;100407.44;;;20.28;46.42
56514;BME280;62152;52.078;8.414;2023-05-16T10:42:12;100412.16;;;20.27;46.58
56514;BME280;62152;52.078;8.414;2023-05-16T10:46:13;100417.66;;;20.27;47.11
56514;BME280;62152;52.078;8.414;2023-05-16T10:50:29;100414.91;;;20.27;46.64
56514;BME280;62152;52.078;8.414;2023-05-16T10:54:38;100417.25;;;20.25;46.44
56514;BME280;62152;52.078;8.414;2023-05-16T10:58:45;100415.25;;;20.22;47.14
56514;BME280;62152;52.078;8.414;2023-05-16T11:02:47;100423.13;;;20.23;46.71
56514;BME280;62152;52.078;8.414;2023-05-16T11:06:52;100432.63;;;20.26;46.75
56514;BME280;62152;52.078;8.414;2023-05-16T11:15:40;100423.13;;;20.23;46.99
56514;BME280;62152;52.078;8.414;2023-05-16T11:19:43;100432.63;;;20.26;47.14
56514;BME280;62152;52.078;8.414;2023-05-16T11:24:26;100435.78;;;20.28;46.54
56514;BME280;62152;52.078;8.414;2023-05-16T11:28:31;100446.75;;;20.25;47.05
56514;BME280;62152;52.078;8.414;2023-05-16T11:32:33;100434.53;;;20.22;46.86
56514;BME280;62152;52.078;8.414;2023-05-16T11:36:37;100434.94;;;20.24;47.07
56514;BME280;62152;52.078;8.414;2023-05-16T11:40:41;100430.97;;;20.21;47.14
56514;BME280;62152;52.078;8.414;2023-05-16T11:44:43;100427.09;;;20.26;46.82
56514;BME280;62152;52.078;8.414;2023-05-16T11:48:47;100436.16;;;20.27;46.77
56514;BME280;62152;52.078;8.414;2023-05-16T11:52:51;100433.34;;;20.23;46.90
56514;BME280;62152;52.078;8.414;2023-05-16T11:56:53;100434.13;;;20.23;47.06
56514;BME280;62152;52.078;8.414;2023-05-16T12:00:56;100421.53;;;20.22;46.82
56514;BME280;62152;52.078;8.414;2023-05-16T12:04:56;100421.59;;;20.26;46.58
56514;BME280;62152;52.078;8.414;2023-05-16T12:08:57;100424.81;;;20.32;46.55
56514;BME280;62152;52.078;8.414;2023-05-16T12:12:58;100427.19;;;20.33;46.44
56514;BME280;62152;52.078;8.414;2023-05-16T12:17:01;100422.78;;;20.25;46.55
56514;BME280;62152;52.078;8.414;2023-05-16T12:21:02;100432.63;;;20.26;47.14
56514;BME280;62152;52.078;8.414;2023-05-16T12:25:20;100434.56;;;20.26;47.01
56514;BME280;62152;52.078;8.414;2023-05-16T12:29:21;100438.91;;;20.27;46.30
56514;BME280;62152;52.078;8.414;2023-05-16T12:33:24;100441.28;;;20.28;46.94
56514;BME280;62152;52.078;8.414;2023-05-16T12:37:25;100432.22;;;20.28;46.45
56514;BME280;62152;52.078;8.414;2023-05-16T12:41:25;100436.19;;;20.30;47.07
56514;BME280;62152;52.078;8.414;2023-05-16T12:45:26;100434.59;;;20.29;46.72
56514;BME280;62152;52.078;8.414;2023-05-16T12:49:31;100433.81;;;20.29;46.39
56514;BME280;62152;52.078;8.414;2023-05-16T12:53:40;100429.47;;;20.28;46.56
56514;BME280;62152;52.078;8.414;2023-05-16T12:57:42;100429.50;;;20.31;46.50
56514;BME280;62152;52.078;8.414;2023-05-16T13:01:43;100427.91;;;20.30;47.08
56514;BME280;62152;52.078;8.414;2023-05-16T13:05:45;100434.59;;;20.29;46.66
56514;BME280;62152;52.078;8.414;2023-05-16T13:09:46;100434.59;;;20.29;47.13
56514;BME280;62152;52.078;8.414;2023-05-16T13:13:47;100432.63;;;20.30;46.92
56514;BME280;62152;52.078;8.414;2023-05-16T13:17:47;100432.69;;;20.33;47.11
56514;BME280;62152;52.078;8.414;2023-05-16T13:21:50;100435.00;;;20.31;46.93
56514;BME280;62152;52.078;8.414;2023-05-16T13:25:50;100439.38;;;20.32;46.70
56514;BME280;62152;52.078;8.414;2023-05-16T13:29:51;100449.22;;;20.33;46.94
56514;BME280;62152;52.078;8.414;2023-05-16T13:33:52;100445.25;;;20.31;46.50
56514;BME280;62152;52.078;8.414;2023-05-16T13:37:54;100456.25;;;20.31;47.10
56514;BME280;62152;52.078;8.414;2023-05-16T13:41:55;100466.47;;;20.30;46.67
56514;BME280;62152;52.078;8.414;2023-05-16T13:45:56;100466.13;;;20.32;46.47
56514;BME280;62152;52.078;8.414;2023-05-16T13:49:56;100466.13;;;20.32;46.81
56514;BME280;62152;52.078;8.414;2023-05-16T13:53:59;100472.78;;;20.31;46.67
56514;BME280;62152;52.078;8.414;2023-05-16T13:58:00;100463.00;;;20.33;46.96
56514;BME280;62152;52.078;8.414;2023-05-16T14:02:00;100461.81;;;20.34;46.37
56514;BME280;62152;52.078;8.414;2023-05-16T14:06:02;100455.16;;;20.35;47.01
56514;BME280;62152;52.078;8.414;2023-05-16T14:10:05;100464.25;;;20.39;46.21
56514;BME280;62152;52.078;8.414;2023-05-16T14:14:07;100465.00;;;20.36;46.47
56514;BME280;62152;52.078;8.414;2023-05-16T14:18:08;100461.81;;;20.34;46.52
56514;BME280;62152;52.078;8.414;2023-05-16T14:22:09;100470.41;;;20.29;46.63
56514;BME280;62152;52.078;8.414;2023-05-16T14:26:11;100464.50;;;20.27;46.81
56514;BME280;62152;52.078;8.414;2023-05-16T14:30:12;100497.53;;;20.27;46.54
56514;BME280;62152;52.078;8.414;2023-05-16T14:34:13;100504.25;;;20.30;46.71
56514;BME280;62152;52.078;8.414;2023-05-16T14:38:14;100493.72;;;20.35;46.64
56514;BME280;62152;52.078;8.414;2023-05-16T14:42:16;100480.00;;;20.39;47.04
56514;BME280;62152;52.078;8.414;2023-05-16T14:46:17;100485.13;;;20.40;46.93
56514;BME280;62152;52.078;8.414;2023-05-16T14:50:18;100488.72;;;20.44;46.78
56514;BME280;62152;52.078;8.414;2023-05-16T14:54:19;100488.00;;;20.47;46.38
56514;BME280;62152;52.078;8.414;2023-05-16T14:58:21;100493.00;;;20.42;46.90
56514;BME280;62152;52.078;8.414;2023-05-16T15:02:22;100494.88;;;20.34;46.47
56514;BME280;62152;52.078;8.414;2023-05-16T15:06:22;100501.56;;;20.33;46.96
56514;BME280;62152;52.078;8.414;2023-05-16T15:10:23;100508.31;;;19.83;43.92
56514;BME280;62152;52.078;8.414;2023-05-16T15:14:26;100520.63;;;19.01;41.59
56514;BME280;62152;52.078;8.414;2023-05-16T15:18:26;100526.53;;;19.64;40.93
56514;BME280;62152;52.078;8.414;2023-05-16T15:22:27;100522.50;;;19.85;40.49
56514;BME280;62152;52.078;8.414;2023-05-16T15:26:28;100514.56;;;19.80;40.55
56514;BME280;62152;52.078;8.414;2023-05-16T15:30:30;100514.78;;;19.94;41.24
56514;BME280;62152;52.078;8.414;2023-05-16T15:34:33;100510.06;;;19.94;39.88
56514;BME280;62152;52.078;8.414;2023-05-16T15:38:36;100513.91;;;19.90;39.94
56514;BME280;62152;52.078;8.414;2023-05-16T15:42:36;100517.91;;;19.92;40.96
56514;BME280;62152;52.078;8.414;2023-05-16T15:46:38;100517.81;;;19.85;39.08
56514;BME280;62152;52.078;8.414;2023-05-16T15:50:39;100513.50;;;20.14;40.59
56514;BME280;62152;52.078;8.414;2023-05-16T15:54:40;100515.47;;;19.87;39.21
56514;BME280;62152;52.078;8.414;2023-05-16T15:58:41;100516.22;;;19.38;38.94
56514;BME280;62152;52.078;8.414;2023-05-16T16:02:43;100508.16;;;19.72;38.09
56514;BME280;62152;52.078;8.414;2023-05-16T16:06:44;100522.75;;;20.03;38.96
56514;BME280;62152;52.078;8.414;2023-05-16T16:10:45;100517.94;;;19.96;39.94
56514;BME280;62152;52.078;8.414;2023-05-16T16:14:46;100520.75;;;19.73;38.74
56514;BME280;62152;52.078;8.414;2023-05-16T16:18:48;100528.81;;;19.85;39.07
56514;BME280;62152;52.078;8.414;2023-05-16T16:22:49;100523.69;;;19.84;39.05
56514;BME280;62152;52.078;8.414;2023-05-16T16:26:49;100538.88;;;20.01;38.91
56514;BME280;62152;52.078;8.414;2023-05-16T16:30:50;100533.19;;;20.16;39.78
56514;BME280;62152;52.078;8.414;2023-05-16T16:34:53;100536.09;;;20.27;40.09
56514;BME280;62152;52.078;8.414;2023-05-16T16:38:54;100534.31;;;20.38;40.31
56514;BME280;62152;52.078;8.414;2023-05-16T16:42:54;100540.75;;;20.49;40.33
56514;BME280;62152;52.078;8.414;2023-05-16T16:46:55;100540.84;;;20.57;40.80
56514;BME280;62152;52.078;8.414;2023-05-16T16:50:57;100546.75;;;20.55;41.18
56514;BME280;62152;52.078;8.414;2023-05-16T16:54:58;100548.38;;;20.60;41.33
56514;BME280;62152;52.078;8.414;2023-05-16T16:58:59;100557.78;;;20.59;42.07
56514;BME280;62152;52.078;8.414;2023-05-16T17:03:00;100555.03;;;20.59;42.56
56514;BME280;62152;52.078;8.414;2023-05-16T17:07:02;100565.66;;;20.57;42.73
56514;BME280;62152;52.078;8.414;2023-05-16T17:11:03;100571.53;;;20.55;42.53
56514;BME280;62152;52.078;8.414;2023-05-16T17:15:05;100577.00;;;20.52;43.31
56514;BME280;62152;52.078;8.414;2023-05-16T17:19:08;100576.19;;;20.51;43.90
56514;BME280;62152;52.078;8.414;2023-05-16T17:23:10;100589.63;;;20.53;43.58
56514;BME280;62152;52.078;8.414;2023-05-16T17:27:11;100585.69;;;20.54;44.24
56514;BME280;62152;52.078;8.414;2023-05-16T17:31:12;100586.91;;;20.56;44.34
56514;BME280;62152;52.078;8.414;2023-05-16T17:35:13;100592.41;;;20.56;44.12
56514;BME280;62152;52.078;8.414;2023-05-16T17:39:15;100597.31;;;20.43;43.14
56514;BME280;62152;52.078;8.414;2023-05-16T17:43:16;100600.56;;;20.45;42.37
56514;BME280;62152;52.078;8.414;2023-05-16T17:47:17;100605.59;;;20.43;42.71
56514;BME280;62152;52.078;8.414;2023-05-16T17:51:18;100614.59;;;20.40;42.89
56514;BME280;62152;52.078;8.414;2023-05-16T17:55:20;100620.84;;;20.37;42.61
56514;BME280;62152;52.078;8.414;2023-05-16T17:59:21;100615.34;;;20.37;42.86
56514;BME280;62152;52.078;8.414;2023-05-16T18:03:22;100609.41;;;20.35;43.19
56514;BME280;62152;52.078;8.414;2023-05-16T18:07:24;100614.53;;;20.37;43.84
56514;BME280;62152;52.078;8.414;2023-05-16T18:11:26;100618.75;;;20.27;41.80
56514;BME280;62152;52.078;8.414;2023-05-16T18:15:27;100618.84;;;20.34;41.00
56514;BME280;62152;52.078;8.414;2023-05-16T18:19:28;100626.78;;;20.39;40.51
56514;BME280;62152;52.078;8.414;2023-05-16T18:23:29;100627.22;;;20.41;40.52
56514;BME280;62152;52.078;8.414;2023-05-16T18:27:31;100639.81;;;20.42;41.07
56514;BME280;62152;52.078;8.414;2023-05-16T18:31:32;100636.69;;;20.44;41.31
56514;BME280;62152;52.078;8.414;2023-05-16T18:35:33;100646.91;;;20.43;42.36
56514;BME280;62152;52.078;8.414;2023-05-16T18:39:33;100649.66;;;20.43;42.05
56514;BME280;62152;52.078;8.414;2023-05-16T18:43:36;100649.25;;;20.41;42.30
56514;BME280;62152;52.078;8.414;2023-05-16T18:47:36;100646.91;;;20.43;42.12
56514;BME280;62152;52.078;8.414;2023-05-16T18:51:37;100649.66;;;20.43;42.44
56514;BME280;62152;52.078;8.414;2023-05-16T18:55:38;100656.34;;;20.42;43.57
56514;BME280;62152;52.078;8.414;2023-05-16T18:59:40;100658.72;;;20.44;43.47
56514;BME280;62152;52.078;8.414;2023-05-16T19:03:41;100668.94;;;20.43;43.68
56514;BME280;62152;52.078;8.414;2023-05-16T19:07:42;100669.34;;;20.42;43.68
56514;BME280;62152;52.078;8.414;2023-05-16T19:11:42;100672.88;;;20.42;43.50
56514;BME280;62152;52.078;8.414;2023-05-16T19:15:45;100672.88;;;20.42;43.13
56514;BME280;62152;52.078;8.414;2023-05-16T19:19:45;100688.63;;;20.42;43.60
56514;BME280;62152;52.078;8.414;2023-05-16T19:23:46;100682.72;;;20.43;43.45
56514;BME280;62152;52.078;8.414;2023-05-16T19:27:47;100702.00;;;20.43;43.61
56514;BME280;62152;52.078;8.414;2023-05-16T19:31:49;100695.72;;;20.43;43.43
56514;BME280;62152;52.078;8.414;2023-05-16T19:35:50;100707.91;;;20.42;44.42
56514;BME280;62152;52.078;8.414;2023-05-16T19:39:51;100713.03;;;20.43;43.88
56514;BME280;62152;52.078;8.414;2023-05-16T19:43:51;100713.41;;;20.42;44.19
56514;BME280;62152;52.078;8.414;2023-05-16T19:47:53;100715.78;;;20.43;43.87
56514;BME280;62152;52.078;8.414;2023-05-16T19:51:54;100719.22;;;20.37;44.22
56514;BME280;62152;52.078;8.414;2023-05-16T19:55:55;100731.84;;;20.38;44.58
56514;BME280;62152;52.078;8.414;2023-05-16T19:59:56;100716.97;;;20.42;44.26
56514;BME280;62152;52.078;8.414;2023-05-16T20:03:58;100720.16;;;20.44;44.24
56514;BME280;62152;52.078;8.414;2023-05-16T20:08:03;100719.34;;;20.44;44.19
56514;BME280;62152;52.078;8.414;2023-05-16T20:12:04;100718.81;;;20.35;44.48
56514;BME280;62152;52.078;8.414;2023-05-16T20:16:05;100719.13;;;20.30;44.12
56514;BME280;62152;52.078;8.414;2023-05-16T20:20:08;100713.56;;;20.26;44.12
56514;BME280;62152;52.078;8.414;2023-05-16T20:24:09;100717.47;;;20.25;44.08
56514;BME280;62152;52.078;8.414;2023-05-16T20:28:10;100712.31;;;20.23;43.64
56514;BME280;62152;52.078;8.414;2023-05-16T20:32:11;100722.91;;;20.21;43.85
56514;BME280;62152;52.078;8.414;2023-05-16T20:36:13;100722.13;;;20.21;43.53
56514;BME280;62152;52.078;8.414;2023-05-16T20:40:14;100724.47;;;20.19;44.42
56514;BME280;62152;52.078;8.414;2023-05-16T20:44:15;100724.47;;;20.19;43.87
56514;BME280;62152;52.078;8.414;2023-05-16T20:48:16;100719.66;;;20.16;44.24
56514;BME280;62152;52.078;8.414;2023-05-16T20:52:18;100722.88;;;20.18;43.97
56514;BME280;62152;52.078;8.414;2023-05-16T20:56:19;100726.75;;;20.17;44.21
56514;BME280;62152;52.078;8.414;2023-05-16T21:00:20;100727.94;;;20.16;44.15
56514;BME280;62152;52.078;8.414;2023-05-16T21:04:20;100715.31;;;20.15;44.00
56514;BME280;62152;52.078;8.414;2023-05-16T21:08:22;100719.25;;;20.14;44.25
56514;BME280;62152;52.078;8.414;2023-05-16T21:12:23;100722.00;;;20.14;44.75
56514;BME280;62152;52.078;8.414;2023-05-16T21:16:24;100735.78;;;20.14;44.79